createdAt,value
2022-12-06T00:00:32.211Z,88.49
2022-12-06T00:03:39.731Z,88.64
2022-12-06T00:06:48.073Z,88.54
2022-12-06T00:09:54.190Z,88.58
2022-12-06T00:12:59.750Z,88.62
2022-12-06T00:16:07.585Z,88.60
2022-12-06T00:19:16.474Z,88.56
2022-12-06T00:22:22.034Z,88.73
2022-12-06T00:25:27.875Z,88.83
2022-12-06T00:28:33.738Z,88.76
2022-12-06T00:31:39.353Z,88.74
2022-12-06T00:34:45.038Z,88.70
2022-12-06T00:37:50.548Z,88.65
2022-12-06T00:41:03.771Z,88.54
2022-12-06T00:44:09.731Z,88.49
2022-12-06T00:47:15.326Z,88.47
2022-12-06T00:50:20.980Z,88.64
2022-12-06T00:53:26.934Z,88.56
2022-12-06T00:56:32.791Z,88.60
2022-12-06T00:59:38.340Z,88.62
2022-12-06T01:02:43.979Z,88.72
2022-12-06T01:05:52.060Z,88.61
2022-12-06T01:08:58.676Z,88.67
2022-12-06T01:12:04.365Z,88.73
2022-12-06T01:15:11.897Z,88.69
2022-12-06T01:18:17.678Z,88.60
2022-12-06T01:21:24.391Z,88.64
2022-12-06T01:24:30.005Z,88.77
2022-12-06T01:27:35.449Z,88.65
2022-12-06T01:30:43.433Z,88.70
2022-12-06T01:33:49.726Z,88.73
2022-12-06T01:36:55.275Z,88.75
2022-12-06T01:40:01.065Z,88.70
2022-12-06T01:43:06.987Z,88.69
2022-12-06T01:46:29.977Z,88.85
2022-12-06T01:49:37.639Z,88.89
2022-12-06T01:52:51.008Z,88.84
2022-12-06T01:55:57.139Z,88.72
2022-12-06T01:59:03.572Z,88.97
2022-12-06T02:02:10.191Z,89.03
2022-12-06T02:05:16.843Z,89.02
2022-12-06T02:08:23.263Z,89.01
2022-12-06T02:11:33.640Z,88.92
2022-12-06T02:14:41.758Z,88.95
2022-12-06T02:17:47.966Z,88.91
2022-12-06T02:21:01.299Z,89.07
2022-12-06T02:24:38.660Z,89.05
2022-12-06T02:28:20.828Z,88.72
2022-12-06T02:31:30.237Z,89.10
2022-12-06T02:34:45.415Z,89.20
2022-12-06T02:37:55.063Z,89.22
2022-12-06T02:41:04.767Z,89.17
2022-12-06T02:44:20.189Z,89.11
2022-12-06T02:47:31.780Z,89.10
2022-12-06T02:50:40.969Z,89.03
2022-12-06T02:53:49.733Z,88.97
2022-12-06T02:56:55.257Z,89.12
2022-12-06T03:00:01.001Z,89.05
2022-12-06T03:03:33.314Z,89.15
2022-12-06T03:06:58.982Z,89.03
2022-12-06T03:10:23.433Z,89.24
2022-12-06T03:13:35.787Z,89.07
2022-12-06T03:16:48.483Z,89.09
2022-12-06T03:20:03.882Z,89.14
2022-12-06T03:23:12.724Z,89.14
2022-12-06T03:26:24.971Z,89.19
2022-12-06T03:29:35.512Z,89.25
2022-12-06T03:32:46.203Z,89.12
2022-12-06T03:35:54.318Z,89.14
2022-12-06T03:39:02.892Z,89.08
2022-12-06T03:42:09.710Z,89.22
2022-12-06T03:45:16.466Z,89.26
2022-12-06T03:48:27.539Z,88.99
2022-12-06T03:51:36.137Z,89.09
2022-12-06T03:54:43.410Z,89.26
2022-12-06T03:57:49.035Z,89.24
2022-12-06T04:00:54.791Z,89.28
2022-12-06T04:04:00.875Z,89.28
2022-12-06T04:07:06.469Z,89.19
2022-12-06T04:10:13.308Z,89.40
2022-12-06T04:13:19.937Z,89.47
2022-12-06T04:16:43.120Z,89.46
2022-12-06T04:19:52.050Z,89.51
2022-12-06T04:23:07.007Z,89.67
2022-12-06T04:26:14.921Z,89.76
2022-12-06T04:29:38.187Z,89.80
2022-12-06T04:33:01.222Z,89.61
2022-12-06T04:36:25.228Z,89.83
2022-12-06T04:39:30.950Z,89.82
2022-12-06T04:42:54.143Z,89.88
2022-12-06T04:45:59.624Z,89.78
2022-12-06T04:49:05.179Z,89.74
2022-12-06T04:52:11.916Z,89.82
2022-12-06T04:55:18.067Z,89.83
2022-12-06T04:58:23.625Z,89.86
2022-12-06T05:01:29.149Z,89.83
2022-12-06T05:04:35.243Z,89.82
2022-12-06T05:07:40.742Z,89.80
2022-12-06T05:10:49.771Z,89.84
2022-12-06T05:13:55.372Z,89.85
2022-12-06T05:17:00.843Z,89.81
2022-12-06T05:20:07.990Z,89.97
2022-12-06T05:23:13.658Z,89.85
2022-12-06T05:26:20.744Z,89.82
2022-12-06T05:29:26.223Z,89.89
2022-12-06T05:32:31.740Z,89.89
2022-12-06T05:35:39.895Z,89.93
2022-12-06T05:38:51.130Z,89.86
2022-12-06T05:41:57.195Z,89.93
2022-12-06T05:45:02.743Z,89.90
2022-12-06T05:48:09.563Z,89.98
2022-12-06T05:51:15.345Z,90.01
2022-12-06T05:54:21.235Z,90.19
2022-12-06T05:57:26.783Z,90.08
2022-12-06T06:00:32.643Z,90.16
2022-12-06T06:03:42.448Z,90.20
2022-12-06T06:06:51.625Z,90.19
2022-12-06T06:09:57.260Z,90.26
2022-12-06T06:13:04.464Z,90.09
2022-12-06T06:16:10.262Z,90.15
2022-12-06T06:19:16.276Z,90.39
2022-12-06T06:22:23.261Z,90.35
2022-12-06T06:25:28.915Z,90.23
2022-12-06T06:28:34.465Z,90.24
2022-12-06T06:31:40.048Z,90.27
2022-12-06T06:34:45.590Z,90.41
2022-12-06T06:37:51.112Z,90.25
2022-12-06T06:40:56.660Z,90.41
2022-12-06T06:44:02.210Z,90.41
2022-12-06T06:47:07.964Z,90.40
2022-12-06T06:50:14.618Z,90.09
2022-12-06T06:53:20.604Z,90.16
2022-12-06T06:56:26.148Z,90.49
2022-12-06T06:59:31.698Z,90.31
2022-12-06T07:02:39.668Z,90.32
2022-12-06T07:05:45.332Z,90.40
2022-12-06T07:08:51.007Z,90.46
2022-12-06T07:11:57.683Z,90.41
2022-12-06T07:15:03.125Z,90.58
2022-12-06T07:18:08.784Z,90.48
2022-12-06T07:21:16.437Z,90.07
2022-12-06T07:24:22.133Z,90.01
2022-12-06T07:27:27.682Z,90.26
2022-12-06T07:30:33.304Z,90.68
2022-12-06T07:33:39.445Z,90.69
2022-12-06T07:36:44.946Z,90.60
2022-12-06T07:39:50.378Z,90.54
2022-12-06T07:43:13.353Z,90.60
2022-12-06T07:46:18.844Z,90.52
2022-12-06T07:49:24.797Z,90.48
2022-12-06T07:52:33.937Z,90.64
2022-12-06T07:55:39.466Z,90.62
2022-12-06T07:58:45.398Z,90.47
2022-12-06T08:01:51.336Z,90.35
2022-12-06T08:04:58.534Z,90.41
2022-12-06T08:08:04.139Z,90.45
2022-12-06T08:11:10.770Z,90.49
2022-12-06T08:14:16.959Z,90.45
2022-12-06T08:17:22.429Z,90.66
2022-12-06T08:20:27.931Z,90.81
2022-12-06T08:23:34.651Z,90.69
2022-12-06T08:26:40.354Z,90.58
2022-12-06T08:29:46.319Z,90.64
2022-12-06T08:32:51.759Z,90.54
2022-12-06T08:35:57.315Z,90.56
2022-12-06T08:39:02.916Z,90.62
2022-12-06T08:42:08.620Z,90.68
2022-12-06T08:45:14.204Z,90.64
2022-12-06T08:48:19.719Z,90.56
2022-12-06T08:51:25.574Z,90.64
2022-12-06T08:54:31.434Z,90.54
2022-12-06T08:57:36.973Z,90.73
2022-12-06T09:00:42.427Z,90.62
2022-12-06T09:03:48.163Z,90.60
2022-12-06T09:06:53.935Z,90.74
2022-12-06T09:09:59.897Z,90.67
2022-12-06T09:13:04.188Z,90.75
2022-12-06T09:16:15.794Z,90.58
2022-12-06T09:19:21.835Z,90.63
2022-12-06T09:22:27.520Z,90.77
2022-12-06T09:25:33.069Z,90.92
2022-12-06T09:28:41.074Z,90.75
2022-12-06T09:31:46.811Z,90.88
2022-12-06T09:34:52.862Z,90.63
2022-12-06T09:37:59.402Z,90.77
2022-12-06T09:41:12.852Z,90.65
2022-12-06T09:44:32.319Z,90.68
2022-12-06T09:47:53.836Z,90.79
2022-12-06T09:51:14.871Z,90.88
2022-12-06T09:54:33.935Z,90.98
2022-12-06T09:57:46.592Z,90.98
2022-12-06T10:01:01.256Z,90.95
2022-12-06T10:04:43.032Z,90.81
2022-12-06T10:07:55.954Z,90.75
2022-12-06T10:11:09.921Z,90.85
2022-12-06T10:14:31.646Z,91.02
2022-12-06T10:17:52.262Z,90.91
2022-12-06T10:21:10.800Z,91.05
2022-12-06T10:24:29.668Z,90.87
2022-12-06T10:27:40.687Z,91.11
2022-12-06T10:30:54.642Z,90.90
2022-12-06T10:34:06.052Z,90.99
2022-12-06T10:37:23.610Z,90.86
2022-12-06T10:40:38.169Z,90.86
2022-12-06T10:43:53.550Z,90.91
2022-12-06T10:47:04.868Z,91.17
2022-12-06T10:50:24.001Z,91.10
2022-12-06T10:53:35.083Z,91.10
2022-12-06T10:56:43.136Z,91.31
2022-12-06T10:59:55.183Z,91.30
2022-12-06T11:03:12.311Z,91.37
2022-12-06T11:06:27.031Z,91.28
2022-12-06T11:09:39.896Z,91.41
2022-12-06T11:12:46.671Z,91.32
2022-12-06T11:15:59.410Z,91.21
2022-12-06T11:19:21.833Z,91.30
2022-12-06T11:22:37.562Z,91.30
2022-12-06T11:26:00.175Z,91.33
2022-12-06T11:29:11.249Z,91.19
2022-12-06T11:32:19.361Z,91.17
2022-12-06T11:35:27.782Z,91.31
2022-12-06T11:38:34.754Z,91.28
2022-12-06T11:41:40.419Z,91.26
2022-12-06T11:45:01.370Z,91.27
2022-12-06T11:48:18.199Z,91.05
2022-12-06T11:51:25.741Z,91.03
2022-12-06T11:54:35.167Z,91.10
2022-12-06T11:57:46.254Z,91.03
2022-12-06T12:01:04.271Z,91.12
2022-12-06T12:04:27.867Z,91.03
2022-12-06T12:07:35.095Z,91.16
2022-12-06T12:10:44.392Z,91.27
2022-12-06T12:13:55.884Z,91.36
2022-12-06T12:17:04.808Z,91.10
2022-12-06T12:20:23.321Z,91.10
2022-12-06T12:23:33.999Z,91.26
2022-12-06T12:26:42.597Z,91.18
2022-12-06T12:29:48.309Z,91.31
2022-12-06T12:33:09.591Z,91.15
2022-12-06T12:36:23.057Z,91.06
2022-12-06T12:39:42.331Z,91.00
2022-12-06T12:42:48.951Z,91.28
2022-12-06T12:46:20.827Z,91.16
2022-12-06T12:49:31.362Z,91.00
2022-12-06T12:52:39.955Z,90.97
2022-12-06T12:55:46.706Z,91.03
2022-12-06T12:58:55.326Z,91.01
2022-12-06T13:02:06.766Z,91.23
2022-12-06T13:05:35.481Z,91.08
2022-12-06T13:08:42.627Z,91.09
2022-12-06T13:11:54.075Z,91.17
2022-12-06T13:15:05.193Z,91.06
2022-12-06T13:18:15.251Z,91.23
2022-12-06T13:21:24.348Z,91.07
2022-12-06T13:24:32.586Z,91.15
2022-12-06T13:27:41.661Z,91.15
2022-12-06T13:30:50.397Z,91.28
2022-12-06T13:34:01.631Z,91.17
2022-12-06T13:37:27.248Z,91.14
2022-12-06T13:40:55.947Z,91.10
2022-12-06T13:44:01.594Z,91.07
2022-12-06T13:50:56.165Z,91.25
2022-12-06T13:54:37.609Z,91.15
2022-12-06T13:57:43.362Z,91.09
2022-12-06T14:00:53.861Z,91.20
2022-12-06T14:04:01.316Z,91.22
2022-12-06T14:10:15.643Z,91.34
2022-12-06T14:13:22.880Z,91.53
2022-12-06T14:16:32.619Z,91.44
2022-12-06T14:19:45.574Z,91.28
2022-12-06T14:22:51.372Z,91.02
2022-12-06T14:26:14.016Z,91.15
2022-12-06T14:29:24.828Z,91.22
2022-12-06T14:32:39.082Z,91.18
2022-12-06T14:35:52.470Z,90.98
2022-12-06T14:39:02.499Z,91.16
2022-12-06T14:42:37.753Z,90.84
2022-12-06T14:45:45.190Z,91.04
2022-12-06T14:49:08.523Z,90.89
2022-12-06T14:52:23.208Z,90.87
2022-12-06T14:55:31.007Z,91.04
2022-12-06T14:58:38.016Z,90.94
2022-12-06T15:01:54.351Z,91.02
2022-12-06T15:05:00.687Z,91.03
2022-12-06T15:08:18.298Z,90.78
2022-12-06T15:12:00.330Z,90.80
2022-12-06T15:15:07.081Z,90.97
2022-12-06T15:18:25.559Z,90.81
2022-12-06T15:21:31.195Z,90.76
2022-12-06T15:24:36.780Z,90.75
2022-12-06T15:27:42.348Z,90.89
2022-12-06T15:30:48.311Z,90.91
2022-12-06T15:33:54.125Z,90.93
2022-12-06T15:37:36.850Z,91.06
2022-12-06T15:40:26.830Z,90.94
2022-12-06T15:43:34.901Z,90.90
2022-12-06T15:46:40.988Z,90.89
2022-12-06T15:49:46.751Z,90.74
2022-12-06T15:52:52.282Z,90.77
2022-12-06T15:55:58.467Z,90.86
2022-12-06T15:59:04.004Z,90.96
2022-12-06T16:02:15.903Z,90.90
2022-12-06T16:05:21.716Z,90.91
2022-12-06T16:08:27.375Z,90.81
2022-12-06T16:11:33.070Z,90.83
2022-12-06T16:14:38.626Z,90.90
2022-12-06T16:17:44.275Z,90.63
2022-12-06T16:20:50.507Z,90.76
2022-12-06T16:24:13.073Z,90.75
2022-12-06T16:27:19.970Z,90.85
2022-12-06T16:30:35.272Z,90.67
2022-12-06T16:33:41.715Z,90.74
2022-12-06T16:37:02.030Z,90.55
2022-12-06T16:40:19.928Z,90.81
2022-12-06T16:43:25.711Z,90.71
2022-12-06T16:46:33.829Z,90.56
2022-12-06T16:49:47.007Z,90.53
2022-12-06T16:52:55.209Z,90.53
2022-12-06T16:56:00.806Z,90.55
2022-12-06T16:59:06.874Z,90.50
2022-12-06T17:02:24.510Z,90.51
2022-12-06T17:05:30.517Z,90.56
2022-12-06T17:08:36.264Z,90.56
2022-12-06T17:12:00.199Z,90.60
2022-12-06T17:15:06.583Z,90.60
2022-12-06T17:18:10.679Z,90.51
2022-12-06T17:21:17.375Z,90.38
2022-12-06T17:24:25.668Z,90.51
2022-12-06T17:27:31.321Z,90.65
2022-12-06T17:30:36.974Z,90.48
2022-12-06T17:33:42.706Z,90.45
2022-12-06T17:36:48.648Z,90.48
2022-12-06T17:39:54.230Z,90.48
2022-12-06T17:43:02.519Z,90.46
2022-12-06T17:46:11.430Z,90.45
2022-12-06T17:49:19.361Z,90.46
2022-12-06T17:52:25.341Z,90.49
2022-12-06T17:55:31.089Z,90.42
2022-12-06T17:58:37.043Z,90.50
2022-12-06T18:02:14.851Z,90.44
2022-12-06T18:05:10.477Z,90.12
2022-12-06T18:08:16.210Z,90.26
2022-12-06T18:11:23.876Z,90.20
2022-12-06T18:14:29.889Z,90.25
2022-12-06T18:17:35.540Z,90.41
2022-12-06T18:20:43.286Z,90.26
2022-12-06T18:24:19.818Z,90.13
2022-12-06T18:27:16.356Z,90.08
2022-12-06T18:30:22.315Z,90.07
2022-12-06T18:33:31.114Z,89.93
2022-12-06T18:36:36.896Z,90.03
2022-12-06T18:39:42.441Z,90.14
2022-12-06T18:42:48.032Z,90.07
2022-12-06T18:46:00.357Z,90.06
2022-12-06T18:49:06.188Z,90.10
2022-12-06T18:52:12.834Z,90.03
2022-12-06T18:55:18.861Z,90.03
2022-12-06T18:58:24.551Z,90.10
2022-12-06T19:01:33.674Z,89.94
2022-12-06T19:04:39.298Z,89.87
2022-12-06T19:07:45.854Z,90.01
2022-12-06T19:10:51.479Z,89.92
2022-12-06T19:13:58.423Z,89.86
2022-12-06T19:17:04.271Z,89.84
2022-12-06T19:20:11.235Z,89.90
2022-12-06T19:23:17.095Z,89.77
2022-12-06T19:26:23.425Z,89.87
2022-12-06T19:29:27.919Z,89.74
2022-12-06T19:32:34.264Z,89.76
2022-12-06T19:35:38.308Z,89.94
2022-12-06T19:38:44.577Z,89.78
2022-12-06T19:42:04.869Z,89.78
2022-12-06T19:45:12.551Z,89.73
2022-12-06T19:48:18.222Z,89.58
2022-12-06T19:51:24.408Z,89.53
2022-12-06T19:54:32.986Z,89.62
2022-12-06T19:57:40.422Z,89.48
2022-12-06T20:00:50.311Z,89.47
2022-12-06T20:03:56.511Z,89.51
2022-12-06T20:07:02.488Z,89.39
2022-12-06T20:10:10.148Z,89.54
2022-12-06T20:13:15.687Z,89.52
2022-12-06T20:16:21.412Z,89.43
2022-12-06T20:19:27.541Z,89.38
2022-12-06T20:22:33.210Z,89.29
2022-12-06T20:25:38.792Z,89.30
2022-12-06T20:28:45.221Z,89.56
2022-12-06T20:31:52.101Z,89.65
2022-12-06T20:34:57.823Z,89.71
2022-12-06T20:38:03.497Z,89.41
2022-12-06T20:41:14.473Z,89.22
2022-12-06T20:44:21.355Z,89.43
2022-12-06T20:47:27.072Z,89.44
2022-12-06T20:50:32.657Z,89.37
2022-12-06T20:53:38.415Z,89.39
2022-12-06T20:56:44.338Z,89.42
2022-12-06T20:59:50.023Z,89.44
2022-12-06T21:02:55.735Z,89.40
2022-12-06T21:06:02.573Z,89.31
2022-12-06T21:09:08.145Z,89.28
2022-12-06T21:12:13.721Z,89.23
2022-12-06T21:15:19.615Z,89.30
2022-12-06T21:18:28.572Z,89.28
2022-12-06T21:21:37.674Z,89.03
2022-12-06T21:24:43.327Z,89.16
2022-12-06T21:27:48.923Z,89.24
2022-12-06T21:30:55.596Z,89.21
2022-12-06T21:34:01.927Z,89.23
2022-12-06T21:37:06.036Z,89.16
2022-12-06T21:40:13.700Z,89.18
2022-12-06T21:43:19.265Z,89.19
2022-12-06T21:46:26.929Z,89.34
2022-12-06T21:49:32.555Z,89.27
2022-12-06T21:52:38.290Z,89.41
2022-12-06T21:55:43.944Z,89.21
2022-12-06T21:58:50.422Z,89.31
2022-12-06T22:01:56.014Z,89.30
2022-12-06T22:05:01.671Z,89.47
2022-12-06T22:08:08.075Z,89.20
2022-12-06T22:11:16.060Z,89.02
2022-12-06T22:14:22.051Z,88.95
2022-12-06T22:17:28.014Z,89.05
2022-12-06T22:20:33.612Z,89.01
2022-12-06T22:23:39.627Z,89.09
2022-12-06T22:26:45.195Z,89.15
2022-12-06T22:29:50.820Z,88.97
2022-12-06T22:32:56.370Z,88.97
2022-12-06T22:36:03.561Z,88.94
2022-12-06T22:39:09.340Z,89.09
2022-12-06T22:42:14.864Z,89.17
2022-12-06T22:45:20.539Z,89.02
2022-12-06T22:48:26.302Z,88.94
2022-12-06T22:51:33.301Z,88.89
2022-12-06T22:54:39.210Z,88.91
2022-12-06T22:57:44.864Z,88.95
2022-12-06T23:00:50.518Z,88.94
2022-12-06T23:03:57.104Z,88.82
2022-12-06T23:07:03.304Z,88.75
2022-12-06T23:10:11.660Z,88.75
2022-12-06T23:13:17.214Z,88.80
2022-12-06T23:16:24.787Z,88.75
2022-12-06T23:19:30.566Z,88.86
2022-12-06T23:22:36.128Z,88.86
2022-12-06T23:25:41.770Z,88.83
2022-12-06T23:28:48.132Z,88.83
2022-12-06T23:31:52.316Z,88.79
2022-12-06T23:34:57.948Z,88.85
2022-12-06T23:38:03.479Z,88.77
2022-12-06T23:41:12.275Z,88.76
2022-12-06T23:44:18.039Z,88.79
2022-12-06T23:47:23.630Z,88.73
2022-12-06T23:50:29.235Z,88.62
2022-12-06T23:53:35.913Z,88.50
2022-12-06T23:56:42.997Z,88.42
2022-12-06T23:59:48.650Z,88.59
